sensor_id;sensor_type;location;lat;lon;timestamp;temperature;humidity
22194;DHT22;11262;50.308;9.270;2022-08-25T00:00:20;21.70;99.90
22194;DHT22;11262;50.308;9.270;2022-08-25T00:02:46;21.60;99.90
22194;DHT22;11262;50.308;9.270;2022-08-25T00:05:13;21.60;99.90
22194;DHT22;11262;50.308;9.270;2022-08-25T00:07:38;21.50;99.90
22194;DHT22;11262;50.308;9.270;2022-08-25T00:10:05;21.50;99.90
22194;DHT22;11262;50.308;9.270;2022-08-25T00:12:31;21.40;99.90
22194;DHT22;11262;50.308;9.270;2022-08-25T00:14:57;21.40;99.90
22194;DHT22;11262;50.308;9.270;2022-08-25T00:17:23;21.30;99.90
22194;DHT22;11262;50.308;9.270;2022-08-25T00:19:48;21.20;99.90
22194;DHT22;11262;50.308;9.270;2022-08-25T00:22:14;21.20;99.90
22194;DHT22;11262;50.308;9.270;2022-08-25T00:24:40;21.10;99.90
22194;DHT22;11262;50.308;9.270;2022-08-25T00:27:05;21.10;99.90
22194;DHT22;11262;50.308;9.270;2022-08-25T00:29:32;21.10;99.90
22194;DHT22;11262;50.308;9.270;2022-08-25T00:31:59;21.00;99.90
22194;DHT22;11262;50.308;9.270;2022-08-25T00:34:28;21.00;99.90
22194;DHT22;11262;50.308;9.270;2022-08-25T00:36:54;20.90;99.90
22194;DHT22;11262;50.308;9.270;2022-08-25T00:39:22;20.90;99.90
22194;DHT22;11262;50.308;9.270;2022-08-25T00:41:50;20.90;99.90
22194;DHT22;11262;50.308;9.270;2022-08-25T00:44:16;20.80;99.90
22194;DHT22;11262;50.308;9.270;2022-08-25T00:46:50;20.80;99.90
22194;DHT22;11262;50.308;9.270;2022-08-25T00:54:21;20.70;99.90
22194;DHT22;11262;50.308;9.270;2022-08-25T00:56:49;20.70;99.90
22194;DHT22;11262;50.308;9.270;2022-08-25T00:59:18;20.80;99.90
22194;DHT22;11262;50.308;9.270;2022-08-25T01:01:44;20.80;99.90
22194;DHT22;11262;50.308;9.270;2022-08-25T01:04:10;20.80;99.90
22194;DHT22;11262;50.308;9.270;2022-08-25T01:06:38;20.70;99.90
22194;DHT22;11262;50.308;9.270;2022-08-25T01:09:04;20.70;99.90
22194;DHT22;11262;50.308;9.270;2022-08-25T01:11:32;20.70;99.90
22194;DHT22;11262;50.308;9.270;2022-08-25T01:13:59;20.60;99.90
22194;DHT22;11262;50.308;9.270;2022-08-25T01:16:27;20.60;99.90
22194;DHT22;11262;50.308;9.270;2022-08-25T01:18:55;20.50;99.90
22194;DHT22;11262;50.308;9.270;2022-08-25T01:21:24;20.50;99.90
22194;DHT22;11262;50.308;9.270;2022-08-25T01:23:50;20.50;99.90
22194;DHT22;11262;50.308;9.270;2022-08-25T01:26:30;20.50;99.90
22194;DHT22;11262;50.308;9.270;2022-08-25T01:28:58;20.50;99.90
22194;DHT22;11262;50.308;9.270;2022-08-25T01:31:43;20.40;99.90
22194;DHT22;11262;50.308;9.270;2022-08-25T01:34:10;20.40;99.90
22194;DHT22;11262;50.308;9.270;2022-08-25T01:36:40;20.30;99.90
22194;DHT22;11262;50.308;9.270;2022-08-25T01:39:06;20.30;99.90
22194;DHT22;11262;50.308;9.270;2022-08-25T01:41:48;20.30;99.90
22194;DHT22;11262;50.308;9.270;2022-08-25T01:44:15;20.30;99.90
22194;DHT22;11262;50.308;9.270;2022-08-25T01:46:42;20.30;99.90
22194;DHT22;11262;50.308;9.270;2022-08-25T01:49:08;20.30;99.90
22194;DHT22;11262;50.308;9.270;2022-08-25T01:51:48;20.30;99.90
22194;DHT22;11262;50.308;9.270;2022-08-25T01:54:15;20.20;99.90
22194;DHT22;11262;50.308;9.270;2022-08-25T01:56:41;20.20;99.90
22194;DHT22;11262;50.308;9.270;2022-08-25T01:59:07;20.20;99.90
22194;DHT22;11262;50.308;9.270;2022-08-25T02:01:32;20.10;99.90
22194;DHT22;11262;50.308;9.270;2022-08-25T02:03:58;20.00;99.90
22194;DHT22;11262;50.308;9.270;2022-08-25T02:06:31;20.00;99.90
22194;DHT22;11262;50.308;9.270;2022-08-25T02:09:03;19.90;99.90
22194;DHT22;11262;50.308;9.270;2022-08-25T02:11:30;19.90;99.90
22194;DHT22;11262;50.308;9.270;2022-08-25T02:13:56;19.90;99.90
22194;DHT22;11262;50.308;9.270;2022-08-25T02:16:26;19.80;99.90
22194;DHT22;11262;50.308;9.270;2022-08-25T02:18:53;19.70;99.90
22194;DHT22;11262;50.308;9.270;2022-08-25T02:21:19;19.60;99.90
22194;DHT22;11262;50.308;9.270;2022-08-25T02:23:45;19.60;99.90
22194;DHT22;11262;50.308;9.270;2022-08-25T02:26:11;19.70;99.90
22194;DHT22;11262;50.308;9.270;2022-08-25T02:28:41;19.60;99.90
22194;DHT22;11262;50.308;9.270;2022-08-25T02:31:08;19.60;99.90
22194;DHT22;11262;50.308;9.270;2022-08-25T02:33:34;19.60;99.90
22194;DHT22;11262;50.308;9.270;2022-08-25T02:36:00;19.60;99.90
22194;DHT22;11262;50.308;9.270;2022-08-25T02:38:27;19.50;99.90
22194;DHT22;11262;50.308;9.270;2022-08-25T02:40:57;19.40;99.90
22194;DHT22;11262;50.308;9.270;2022-08-25T02:43:25;19.40;99.90
22194;DHT22;11262;50.308;9.270;2022-08-25T02:45:52;19.40;99.90
22194;DHT22;11262;50.308;9.270;2022-08-25T02:48:18;19.30;99.90
22194;DHT22;11262;50.308;9.270;2022-08-25T02:50:48;19.30;99.90
22194;DHT22;11262;50.308;9.270;2022-08-25T02:53:15;19.20;99.90
22194;DHT22;11262;50.308;9.270;2022-08-25T02:55:41;19.20;99.90
22194;DHT22;11262;50.308;9.270;2022-08-25T02:58:07;19.10;99.90
22194;DHT22;11262;50.308;9.270;2022-08-25T03:00:34;19.10;99.90
22194;DHT22;11262;50.308;9.270;2022-08-25T03:02:59;19.00;99.90
22194;DHT22;11262;50.308;9.270;2022-08-25T03:05:25;19.00;99.90
22194;DHT22;11262;50.308;9.270;2022-08-25T03:07:51;19.00;99.90
22194;DHT22;11262;50.308;9.270;2022-08-25T03:10:17;18.90;99.90
22194;DHT22;11262;50.308;9.270;2022-08-25T03:12:44;18.90;99.90
22194;DHT22;11262;50.308;9.270;2022-08-25T03:15:12;18.80;99.90
22194;DHT22;11262;50.308;9.270;2022-08-25T03:17:42;18.70;99.90
22194;DHT22;11262;50.308;9.270;2022-08-25T03:20:07;18.80;99.90
22194;DHT22;11262;50.308;9.270;2022-08-25T03:22:33;18.80;99.90
22194;DHT22;11262;50.308;9.270;2022-08-25T03:24:59;18.80;99.90
22194;DHT22;11262;50.308;9.270;2022-08-25T03:27:44;18.80;99.90
22194;DHT22;11262;50.308;9.270;2022-08-25T03:30:11;18.70;99.90
22194;DHT22;11262;50.308;9.270;2022-08-25T03:32:37;18.70;99.90
22194;DHT22;11262;50.308;9.270;2022-08-25T03:35:04;18.70;99.90
22194;DHT22;11262;50.308;9.270;2022-08-25T03:37:29;18.70;99.90
22194;DHT22;11262;50.308;9.270;2022-08-25T03:39:55;18.60;99.90
22194;DHT22;11262;50.308;9.270;2022-08-25T03:42:21;18.60;99.90
22194;DHT22;11262;50.308;9.270;2022-08-25T03:44:46;18.60;99.90
22194;DHT22;11262;50.308;9.270;2022-08-25T03:47:12;18.50;99.90
22194;DHT22;11262;50.308;9.270;2022-08-25T03:49:38;18.50;99.90
22194;DHT22;11262;50.308;9.270;2022-08-25T03:52:03;18.50;99.90
22194;DHT22;11262;50.308;9.270;2022-08-25T03:54:29;18.50;99.90
22194;DHT22;11262;50.308;9.270;2022-08-25T03:56:55;18.50;99.90
22194;DHT22;11262;50.308;9.270;2022-08-25T03:59:20;18.40;99.90
22194;DHT22;11262;50.308;9.270;2022-08-25T04:01:46;18.40;99.90
22194;DHT22;11262;50.308;9.270;2022-08-25T04:04:13;18.40;99.90
22194;DHT22;11262;50.308;9.270;2022-08-25T04:06:40;18.40;99.90
22194;DHT22;11262;50.308;9.270;2022-08-25T04:09:06;18.30;99.90
22194;DHT22;11262;50.308;9.270;2022-08-25T04:11:32;18.40;99.90
22194;DHT22;11262;50.308;9.270;2022-08-25T04:13:59;18.30;99.90
22194;DHT22;11262;50.308;9.270;2022-08-25T04:16:29;18.30;99.90
22194;DHT22;11262;50.308;9.270;2022-08-25T04:18:57;18.30;99.90
22194;DHT22;11262;50.308;9.270;2022-08-25T04:21:24;18.20;99.90
22194;DHT22;11262;50.308;9.270;2022-08-25T04:23:50;18.20;99.90
22194;DHT22;11262;50.308;9.270;2022-08-25T04:26:25;18.20;99.90
22194;DHT22;11262;50.308;9.270;2022-08-25T04:28:51;18.20;99.90
22194;DHT22;11262;50.308;9.270;2022-08-25T04:31:19;18.20;99.90
22194;DHT22;11262;50.308;9.270;2022-08-25T04:33:49;18.10;99.90
22194;DHT22;11262;50.308;9.270;2022-08-25T04:36:16;18.10;99.90
22194;DHT22;11262;50.308;9.270;2022-08-25T04:38:43;18.10;99.90
22194;DHT22;11262;50.308;9.270;2022-08-25T04:41:10;18.10;99.90
22194;DHT22;11262;50.308;9.270;2022-08-25T04:43:38;18.00;99.90
22194;DHT22;11262;50.308;9.270;2022-08-25T04:46:09;18.00;99.90
22194;DHT22;11262;50.308;9.270;2022-08-25T04:48:38;18.00;99.90
22194;DHT22;11262;50.308;9.270;2022-08-25T04:51:11;18.00;99.90
22194;DHT22;11262;50.308;9.270;2022-08-25T04:53:37;18.00;99.90
22194;DHT22;11262;50.308;9.270;2022-08-25T04:56:08;18.10;99.90
22194;DHT22;11262;50.308;9.270;2022-08-25T04:58:34;18.10;99.90
22194;DHT22;11262;50.308;9.270;2022-08-25T05:01:11;18.10;99.90
22194;DHT22;11262;50.308;9.270;2022-08-25T05:03:40;18.10;99.90
22194;DHT22;11262;50.308;9.270;2022-08-25T05:06:06;18.10;99.90
22194;DHT22;11262;50.308;9.270;2022-08-25T05:08:32;18.10;99.90
22194;DHT22;11262;50.308;9.270;2022-08-25T05:10:58;18.20;99.90
22194;DHT22;11262;50.308;9.270;2022-08-25T05:13:24;18.20;99.90
22194;DHT22;11262;50.308;9.270;2022-08-25T05:15:55;18.30;99.90
22194;DHT22;11262;50.308;9.270;2022-08-25T05:18:23;18.30;99.90
22194;DHT22;11262;50.308;9.270;2022-08-25T05:20:50;18.40;99.90
22194;DHT22;11262;50.308;9.270;2022-08-25T05:23:18;18.40;99.90
22194;DHT22;11262;50.308;9.270;2022-08-25T05:25:43;18.50;99.90
22194;DHT22;11262;50.308;9.270;2022-08-25T05:28:10;18.50;99.90
22194;DHT22;11262;50.308;9.270;2022-08-25T05:30:40;18.60;99.90
22194;DHT22;11262;50.308;9.270;2022-08-25T05:33:06;18.70;99.90
22194;DHT22;11262;50.308;9.270;2022-08-25T05:35:32;18.80;99.90
22194;DHT22;11262;50.308;9.270;2022-08-25T05:37:58;18.80;99.90
22194;DHT22;11262;50.308;9.270;2022-08-25T05:40:23;19.00;99.90
22194;DHT22;11262;50.308;9.270;2022-08-25T05:42:49;19.10;99.90
22194;DHT22;11262;50.308;9.270;2022-08-25T05:45:16;19.10;99.90
22194;DHT22;11262;50.308;9.270;2022-08-25T05:47:42;19.20;99.90
22194;DHT22;11262;50.308;9.270;2022-08-25T05:50:08;19.40;99.90
22194;DHT22;11262;50.308;9.270;2022-08-25T05:52:34;19.40;99.90
22194;DHT22;11262;50.308;9.270;2022-08-25T05:55:00;19.50;99.90
22194;DHT22;11262;50.308;9.270;2022-08-25T05:57:25;19.60;99.90
22194;DHT22;11262;50.308;9.270;2022-08-25T05:59:51;19.70;99.90
22194;DHT22;11262;50.308;9.270;2022-08-25T06:02:17;19.80;99.90
22194;DHT22;11262;50.308;9.270;2022-08-25T06:05:01;19.90;99.90
22194;DHT22;11262;50.308;9.270;2022-08-25T06:07:27;20.00;99.90
22194;DHT22;11262;50.308;9.270;2022-08-25T06:09:53;20.10;99.90
22194;DHT22;11262;50.308;9.270;2022-08-25T06:12:18;20.10;99.90
22194;DHT22;11262;50.308;9.270;2022-08-25T06:14:46;20.20;99.90
22194;DHT22;11262;50.308;9.270;2022-08-25T06:17:12;20.30;99.90
22194;DHT22;11262;50.308;9.270;2022-08-25T06:19:38;20.40;99.90
22194;DHT22;11262;50.308;9.270;2022-08-25T06:22:04;20.40;99.90
22194;DHT22;11262;50.308;9.270;2022-08-25T06:24:29;20.50;99.90
22194;DHT22;11262;50.308;9.270;2022-08-25T06:26:56;20.60;99.90
22194;DHT22;11262;50.308;9.270;2022-08-25T06:29:22;20.70;99.90
22194;DHT22;11262;50.308;9.270;2022-08-25T06:31:48;20.80;99.90
22194;DHT22;11262;50.308;9.270;2022-08-25T06:34:14;20.80;99.90
22194;DHT22;11262;50.308;9.270;2022-08-25T06:36:40;20.90;99.90
22194;DHT22;11262;50.308;9.270;2022-08-25T06:39:07;20.90;99.90
22194;DHT22;11262;50.308;9.270;2022-08-25T06:41:32;21.00;99.90
22194;DHT22;11262;50.308;9.270;2022-08-25T06:43:58;21.20;99.90
22194;DHT22;11262;50.308;9.270;2022-08-25T06:46:25;21.30;99.90
22194;DHT22;11262;50.308;9.270;2022-08-25T06:48:52;21.40;99.90
22194;DHT22;11262;50.308;9.270;2022-08-25T06:51:19;21.50;99.90
22194;DHT22;11262;50.308;9.270;2022-08-25T06:53:47;21.50;99.90
22194;DHT22;11262;50.308;9.270;2022-08-25T06:56:14;21.60;99.90
22194;DHT22;11262;50.308;9.270;2022-08-25T06:58:40;21.70;99.90
22194;DHT22;11262;50.308;9.270;2022-08-25T07:03:33;22.00;99.90
22194;DHT22;11262;50.308;9.270;2022-08-25T07:05:59;22.00;99.90
22194;DHT22;11262;50.308;9.270;2022-08-25T07:08:25;22.10;99.90
22194;DHT22;11262;50.308;9.270;2022-08-25T07:10:51;22.20;99.90
22194;DHT22;11262;50.308;9.270;2022-08-25T07:13:17;22.40;99.90
22194;DHT22;11262;50.308;9.270;2022-08-25T07:15:43;22.40;99.90
22194;DHT22;11262;50.308;9.270;2022-08-25T07:18:09;22.50;99.90
22194;DHT22;11262;50.308;9.270;2022-08-25T07:20:36;22.70;99.90
22194;DHT22;11262;50.308;9.270;2022-08-25T07:23:03;22.80;99.90
22194;DHT22;11262;50.308;9.270;2022-08-25T07:25:28;22.90;99.90
22194;DHT22;11262;50.308;9.270;2022-08-25T07:27:54;23.00;99.90
22194;DHT22;11262;50.308;9.270;2022-08-25T07:30:20;23.00;99.90
22194;DHT22;11262;50.308;9.270;2022-08-25T07:32:46;23.20;99.90
22194;DHT22;11262;50.308;9.270;2022-08-25T07:35:12;23.30;99.90
22194;DHT22;11262;50.308;9.270;2022-08-25T07:37:45;23.40;99.90
22194;DHT22;11262;50.308;9.270;2022-08-25T07:40:18;23.60;99.90
22194;DHT22;11262;50.308;9.270;2022-08-25T07:42:45;23.70;99.90
22194;DHT22;11262;50.308;9.270;2022-08-25T07:45:12;23.80;99.90
22194;DHT22;11262;50.308;9.270;2022-08-25T07:47:38;23.90;99.90
22194;DHT22;11262;50.308;9.270;2022-08-25T07:50:09;24.00;99.90
22194;DHT22;11262;50.308;9.270;2022-08-25T07:52:36;24.10;99.90
22194;DHT22;11262;50.308;9.270;2022-08-25T07:55:02;24.20;99.90
22194;DHT22;11262;50.308;9.270;2022-08-25T07:57:27;24.40;99.90
22194;DHT22;11262;50.308;9.270;2022-08-25T07:59:54;24.50;99.90
22194;DHT22;11262;50.308;9.270;2022-08-25T08:02:20;24.60;99.90
22194;DHT22;11262;50.308;9.270;2022-08-25T08:04:47;24.80;99.90
22194;DHT22;11262;50.308;9.270;2022-08-25T08:07:23;24.90;99.90
22194;DHT22;11262;50.308;9.270;2022-08-25T08:09:50;25.00;99.90
22194;DHT22;11262;50.308;9.270;2022-08-25T08:12:16;25.10;99.90
22194;DHT22;11262;50.308;9.270;2022-08-25T08:14:41;25.20;99.90
22194;DHT22;11262;50.308;9.270;2022-08-25T08:17:08;25.20;99.90
22194;DHT22;11262;50.308;9.270;2022-08-25T08:19:35;25.40;99.90
22194;DHT22;11262;50.308;9.270;2022-08-25T08:22:01;25.40;99.90
22194;DHT22;11262;50.308;9.270;2022-08-25T08:24:32;25.60;99.90
22194;DHT22;11262;50.308;9.270;2022-08-25T08:27:05;25.40;99.90
22194;DHT22;11262;50.308;9.270;2022-08-25T08:29:31;25.40;99.90
22194;DHT22;11262;50.308;9.270;2022-08-25T08:31:57;25.60;99.90
22194;DHT22;11262;50.308;9.270;2022-08-25T08:34:24;25.90;99.90
22194;DHT22;11262;50.308;9.270;2022-08-25T08:36:49;25.90;99.90
22194;DHT22;11262;50.308;9.270;2022-08-25T08:39:15;26.20;99.90
22194;DHT22;11262;50.308;9.270;2022-08-25T08:49:51;26.90;99.90
22194;DHT22;11262;50.308;9.270;2022-08-25T08:52:23;27.00;99.90
22194;DHT22;11262;50.308;9.270;2022-08-25T08:54:58;27.10;99.90
22194;DHT22;11262;50.308;9.270;2022-08-25T08:57:30;27.00;99.90
22194;DHT22;11262;50.308;9.270;2022-08-25T09:00:01;27.10;99.90
22194;DHT22;11262;50.308;9.270;2022-08-25T09:03:03;27.30;99.90
22194;DHT22;11262;50.308;9.270;2022-08-25T09:05:27;27.20;99.90
22194;DHT22;11262;50.308;9.270;2022-08-25T09:07:58;27.10;99.90
22194;DHT22;11262;50.308;9.270;2022-08-25T09:10:31;27.20;99.90
22194;DHT22;11262;50.308;9.270;2022-08-25T09:13:51;27.50;99.90
22194;DHT22;11262;50.308;9.270;2022-08-25T09:15:57;27.70;99.90
22194;DHT22;11262;50.308;9.270;2022-08-25T09:18:53;27.80;99.90
22194;DHT22;11262;50.308;9.270;2022-08-25T09:27:05;27.60;99.90
22194;DHT22;11262;50.308;9.270;2022-08-25T09:30:00;28.00;99.90
22194;DHT22;11262;50.308;9.270;2022-08-25T09:32:33;28.10;99.90
22194;DHT22;11262;50.308;9.270;2022-08-25T09:35:00;28.00;99.90
22194;DHT22;11262;50.308;9.270;2022-08-25T09:37:27;27.90;99.90
22194;DHT22;11262;50.308;9.270;2022-08-25T09:39:52;28.20;99.90
22194;DHT22;11262;50.308;9.270;2022-08-25T09:42:19;28.50;99.90
22194;DHT22;11262;50.308;9.270;2022-08-25T09:44:46;28.60;99.90
22194;DHT22;11262;50.308;9.270;2022-08-25T09:49:56;28.90;99.90
22194;DHT22;11262;50.308;9.270;2022-08-25T09:54:55;29.10;99.90
22194;DHT22;11262;50.308;9.270;2022-08-25T10:00:20;29.10;99.90
22194;DHT22;11262;50.308;9.270;2022-08-25T10:06:00;28.70;99.90
22194;DHT22;11262;50.308;9.270;2022-08-25T10:08:38;28.60;99.90
22194;DHT22;11262;50.308;9.270;2022-08-25T10:11:09;28.30;99.90
22194;DHT22;11262;50.308;9.270;2022-08-25T10:13:46;28.10;99.90
22194;DHT22;11262;50.308;9.270;2022-08-25T10:16:25;27.80;99.90
22194;DHT22;11262;50.308;9.270;2022-08-25T10:21:41;27.70;99.90
22194;DHT22;11262;50.308;9.270;2022-08-25T10:24:09;28.20;99.90
22194;DHT22;11262;50.308;9.270;2022-08-25T10:27:02;28.60;99.90
22194;DHT22;11262;50.308;9.270;2022-08-25T10:35:05;28.70;99.90
22194;DHT22;11262;50.308;9.270;2022-08-25T10:40:26;28.10;99.90
22194;DHT22;11262;50.308;9.270;2022-08-25T10:43:34;28.20;99.90
22194;DHT22;11262;50.308;9.270;2022-08-25T10:46:19;28.20;99.90
22194;DHT22;11262;50.308;9.270;2022-08-25T10:49:13;28.10;99.90
22194;DHT22;11262;50.308;9.270;2022-08-25T10:52:04;28.10;99.90
22194;DHT22;11262;50.308;9.270;2022-08-25T10:54:56;28.10;99.90
22194;DHT22;11262;50.308;9.270;2022-08-25T10:57:34;28.30;99.90
22194;DHT22;11262;50.308;9.270;2022-08-25T11:00:10;28.60;99.90
22194;DHT22;11262;50.308;9.270;2022-08-25T11:11:30;28.90;99.10
22194;DHT22;11262;50.308;9.270;2022-08-25T11:14:00;28.90;99.00
22194;DHT22;11262;50.308;9.270;2022-08-25T11:19:08;28.60;99.10
22194;DHT22;11262;50.308;9.270;2022-08-25T11:26:47;27.90;99.80
22194;DHT22;11262;50.308;9.270;2022-08-25T11:29:17;28.10;99.90
22194;DHT22;11262;50.308;9.270;2022-08-25T11:31:49;27.80;99.90
22194;DHT22;11262;50.308;9.270;2022-08-25T11:34:15;28.10;99.90
22194;DHT22;11262;50.308;9.270;2022-08-25T11:50:25;29.50;99.10
22194;DHT22;11262;50.308;9.270;2022-08-25T11:52:54;30.00;98.10
22194;DHT22;11262;50.308;9.270;2022-08-25T12:00:53;31.40;93.10
22194;DHT22;11262;50.308;9.270;2022-08-25T12:11:43;32.10;91.00
22194;DHT22;11262;50.308;9.270;2022-08-25T12:21:50;33.00;87.70
22194;DHT22;11262;50.308;9.270;2022-08-25T12:27:31;33.00;84.70
22194;DHT22;11262;50.308;9.270;2022-08-25T12:32:56;32.00;84.80
22194;DHT22;11262;50.308;9.270;2022-08-25T12:35:28;31.60;85.70
22194;DHT22;11262;50.308;9.270;2022-08-25T12:40:35;31.10;86.60
22194;DHT22;11262;50.308;9.270;2022-08-25T12:43:07;31.00;86.30
22194;DHT22;11262;50.308;9.270;2022-08-25T12:45:48;31.20;85.70
22194;DHT22;11262;50.308;9.270;2022-08-25T12:51:03;31.20;81.80
22194;DHT22;11262;50.308;9.270;2022-08-25T12:53:34;31.50;81.70
22194;DHT22;11262;50.308;9.270;2022-08-25T12:56:08;31.90;78.60
22194;DHT22;11262;50.308;9.270;2022-08-25T13:01:30;32.80;75.20
22194;DHT22;11262;50.308;9.270;2022-08-25T13:07:38;32.50;72.60
22194;DHT22;11262;50.308;9.270;2022-08-25T13:10:17;32.70;70.10
22194;DHT22;11262;50.308;9.270;2022-08-25T13:12:58;32.70;69.40
22194;DHT22;11262;50.308;9.270;2022-08-25T13:15:31;33.40;66.40
22194;DHT22;11262;50.308;9.270;2022-08-25T13:18:19;33.40;62.60
22194;DHT22;11262;50.308;9.270;2022-08-25T13:20:47;33.90;61.60
22194;DHT22;11262;50.308;9.270;2022-08-25T13:23:17;34.20;60.00
22194;DHT22;11262;50.308;9.270;2022-08-25T13:25:49;34.30;59.80
22194;DHT22;11262;50.308;9.270;2022-08-25T13:28:56;34.50;58.70
22194;DHT22;11262;50.308;9.270;2022-08-25T13:31:23;34.70;58.00
22194;DHT22;11262;50.308;9.270;2022-08-25T13:36:19;34.80;58.30
22194;DHT22;11262;50.308;9.270;2022-08-25T13:39:21;34.80;59.20
22194;DHT22;11262;50.308;9.270;2022-08-25T13:41:55;35.00;58.70
22194;DHT22;11262;50.308;9.270;2022-08-25T13:44:24;35.10;58.50
22194;DHT22;11262;50.308;9.270;2022-08-25T13:47:11;34.80;57.60
22194;DHT22;11262;50.308;9.270;2022-08-25T13:49:38;34.50;58.10
22194;DHT22;11262;50.308;9.270;2022-08-25T13:52:05;34.50;59.00
22194;DHT22;11262;50.308;9.270;2022-08-25T13:54:37;34.60;59.20
22194;DHT22;11262;50.308;9.270;2022-08-25T13:57:26;34.50;60.50
22194;DHT22;11262;50.308;9.270;2022-08-25T13:59:56;34.50;60.10
22194;DHT22;11262;50.308;9.270;2022-08-25T14:02:49;34.30;60.60
22194;DHT22;11262;50.308;9.270;2022-08-25T14:05:27;34.40;62.20
22194;DHT22;11262;50.308;9.270;2022-08-25T14:07:55;34.60;63.00
22194;DHT22;11262;50.308;9.270;2022-08-25T14:10:40;34.70;62.50
22194;DHT22;11262;50.308;9.270;2022-08-25T14:15:52;35.10;63.20
22194;DHT22;11262;50.308;9.270;2022-08-25T14:18:27;34.90;62.10
22194;DHT22;11262;50.308;9.270;2022-08-25T14:20:55;34.20;63.50
22194;DHT22;11262;50.308;9.270;2022-08-25T14:23:24;33.80;64.30
22194;DHT22;11262;50.308;9.270;2022-08-25T14:25:52;33.60;64.10
22194;DHT22;11262;50.308;9.270;2022-08-25T14:28:21;32.80;64.20
22194;DHT22;11262;50.308;9.270;2022-08-25T14:30:54;32.80;64.50
22194;DHT22;11262;50.308;9.270;2022-08-25T14:33:23;33.20;64.60
22194;DHT22;11262;50.308;9.270;2022-08-25T14:35:52;32.50;65.20
22194;DHT22;11262;50.308;9.270;2022-08-25T14:38:19;32.70;65.90
22194;DHT22;11262;50.308;9.270;2022-08-25T14:40:45;32.90;66.20
22194;DHT22;11262;50.308;9.270;2022-08-25T14:43:11;32.70;64.20
22194;DHT22;11262;50.308;9.270;2022-08-25T14:45:39;33.10;64.00
22194;DHT22;11262;50.308;9.270;2022-08-25T14:48:08;33.10;62.30
22194;DHT22;11262;50.308;9.270;2022-08-25T14:50:35;33.50;62.30
22194;DHT22;11262;50.308;9.270;2022-08-25T14:53:02;33.60;62.20
22194;DHT22;11262;50.308;9.270;2022-08-25T14:55:27;34.20;60.10
22194;DHT22;11262;50.308;9.270;2022-08-25T14:57:53;34.40;59.00
22194;DHT22;11262;50.308;9.270;2022-08-25T15:00:19;34.10;58.50
22194;DHT22;11262;50.308;9.270;2022-08-25T15:02:47;33.90;57.50
22194;DHT22;11262;50.308;9.270;2022-08-25T15:05:16;34.10;56.90
22194;DHT22;11262;50.308;9.270;2022-08-25T15:07:44;33.70;57.30
22194;DHT22;11262;50.308;9.270;2022-08-25T15:10:28;33.20;57.40
22194;DHT22;11262;50.308;9.270;2022-08-25T15:12:54;33.50;57.60
22194;DHT22;11262;50.308;9.270;2022-08-25T15:15:19;32.40;58.30
22194;DHT22;11262;50.308;9.270;2022-08-25T15:17:45;32.90;59.00
22194;DHT22;11262;50.308;9.270;2022-08-25T15:20:12;33.30;57.90
22194;DHT22;11262;50.308;9.270;2022-08-25T15:22:38;33.60;57.70
22194;DHT22;11262;50.308;9.270;2022-08-25T15:25:05;33.70;57.40
22194;DHT22;11262;50.308;9.270;2022-08-25T15:27:31;33.70;57.30
22194;DHT22;11262;50.308;9.270;2022-08-25T15:29:57;34.00;58.20
22194;DHT22;11262;50.308;9.270;2022-08-25T15:32:23;34.30;57.10
22194;DHT22;11262;50.308;9.270;2022-08-25T15:34:49;35.00;57.10
22194;DHT22;11262;50.308;9.270;2022-08-25T15:37:16;36.00;56.50
22194;DHT22;11262;50.308;9.270;2022-08-25T15:39:43;36.80;55.00
22194;DHT22;11262;50.308;9.270;2022-08-25T15:42:09;36.60;54.30
22194;DHT22;11262;50.308;9.270;2022-08-25T15:44:39;37.00;54.10
22194;DHT22;11262;50.308;9.270;2022-08-25T15:47:05;36.70;54.00
22194;DHT22;11262;50.308;9.270;2022-08-25T15:49:32;37.00;53.70
22194;DHT22;11262;50.308;9.270;2022-08-25T15:51:58;36.30;54.40
22194;DHT22;11262;50.308;9.270;2022-08-25T15:54:25;36.90;54.00
22194;DHT22;11262;50.308;9.270;2022-08-25T15:56:51;37.40;54.10
22194;DHT22;11262;50.308;9.270;2022-08-25T15:59:17;36.70;53.50
22194;DHT22;11262;50.308;9.270;2022-08-25T16:01:43;37.40;53.30
22194;DHT22;11262;50.308;9.270;2022-08-25T16:04:09;38.00;52.40
22194;DHT22;11262;50.308;9.270;2022-08-25T16:06:34;37.40;52.50
22194;DHT22;11262;50.308;9.270;2022-08-25T16:09:01;37.70;53.00
22194;DHT22;11262;50.308;9.270;2022-08-25T16:11:28;38.20;52.10
22194;DHT22;11262;50.308;9.270;2022-08-25T16:13:55;38.50;51.20
22194;DHT22;11262;50.308;9.270;2022-08-25T16:16:23;38.50;50.80
22194;DHT22;11262;50.308;9.270;2022-08-25T16:18:50;38.40;51.50
22194;DHT22;11262;50.308;9.270;2022-08-25T16:21:29;38.50;51.10
22194;DHT22;11262;50.308;9.270;2022-08-25T16:23:58;38.40;51.70
22194;DHT22;11262;50.308;9.270;2022-08-25T16:26:24;38.80;51.20
22194;DHT22;11262;50.308;9.270;2022-08-25T16:28:50;39.30;50.90
22194;DHT22;11262;50.308;9.270;2022-08-25T16:31:16;39.10;50.50
22194;DHT22;11262;50.308;9.270;2022-08-25T16:33:42;38.70;50.20
22194;DHT22;11262;50.308;9.270;2022-08-25T16:36:09;38.10;51.30
22194;DHT22;11262;50.308;9.270;2022-08-25T16:38:36;38.30;50.90
22194;DHT22;11262;50.308;9.270;2022-08-25T16:41:11;38.80;50.90
22194;DHT22;11262;50.308;9.270;2022-08-25T16:43:37;38.70;50.70
22194;DHT22;11262;50.308;9.270;2022-08-25T16:46:06;38.30;51.00
22194;DHT22;11262;50.308;9.270;2022-08-25T16:48:32;37.40;51.60
22194;DHT22;11262;50.308;9.270;2022-08-25T16:50:58;36.40;52.70
22194;DHT22;11262;50.308;9.270;2022-08-25T16:53:24;35.60;53.50
22194;DHT22;11262;50.308;9.270;2022-08-25T16:56:08;35.10;54.60
22194;DHT22;11262;50.308;9.270;2022-08-25T16:58:36;34.30;56.10
22194;DHT22;11262;50.308;9.270;2022-08-25T17:01:05;33.60;57.20
22194;DHT22;11262;50.308;9.270;2022-08-25T17:03:31;33.30;58.10
22194;DHT22;11262;50.308;9.270;2022-08-25T17:05:58;32.80;59.10
22194;DHT22;11262;50.308;9.270;2022-08-25T17:08:24;32.40;59.90
22194;DHT22;11262;50.308;9.270;2022-08-25T17:11:04;32.00;60.90
22194;DHT22;11262;50.308;9.270;2022-08-25T17:13:31;31.70;62.00
22194;DHT22;11262;50.308;9.270;2022-08-25T17:15:56;31.50;62.50
22194;DHT22;11262;50.308;9.270;2022-08-25T17:18:23;31.30;63.10
22194;DHT22;11262;50.308;9.270;2022-08-25T17:20:57;31.10;64.10
22194;DHT22;11262;50.308;9.270;2022-08-25T17:23:23;30.80;65.10
22194;DHT22;11262;50.308;9.270;2022-08-25T17:25:49;30.60;65.90
22194;DHT22;11262;50.308;9.270;2022-08-25T17:28:16;30.60;66.50
22194;DHT22;11262;50.308;9.270;2022-08-25T17:30:43;30.60;66.90
22194;DHT22;11262;50.308;9.270;2022-08-25T17:33:10;30.50;67.70
22194;DHT22;11262;50.308;9.270;2022-08-25T17:35:44;30.40;67.90
22194;DHT22;11262;50.308;9.270;2022-08-25T17:38:11;30.30;69.30
22194;DHT22;11262;50.308;9.270;2022-08-25T17:40:38;30.10;68.90